sensor_id;sensor_type;location;lat;lon;timestamp;pressure;altitude;pressure_sealevel;temperature;humidity
81931;BME280;71395;43.488;1.472;2023-12-07T00:00:22;99928.03;;;2.20;72.54
81931;BME280;71395;43.488;1.472;2023-12-07T00:02:47;99938.19;;;2.30;73.00
81931;BME280;71395;43.488;1.472;2023-12-07T00:05:13;99946.91;;;2.37;72.27
81931;BME280;71395;43.488;1.472;2023-12-07T00:07:38;99917.84;;;2.24;73.34
81931;BME280;71395;43.488;1.472;2023-12-07T00:10:04;99906.84;;;2.27;72.70
81931;BME280;71395;43.488;1.472;2023-12-07T00:12:30;99909.28;;;2.22;72.34
81931;BME280;71395;43.488;1.472;2023-12-07T00:14:56;99914.56;;;2.28;72.14
81931;BME280;71395;43.488;1.472;2023-12-07T00:17:21;99913.56;;;2.23;72.73
81931;BME280;71395;43.488;1.472;2023-12-07T00:19:46;99923.75;;;2.26;73.23
81931;BME280;71395;43.488;1.472;2023-12-07T00:22:12;99919.66;;;2.23;72.92
81931;BME280;71395;43.488;1.472;2023-12-07T00:24:37;99923.13;;;2.17;73.00
81931;BME280;71395;43.488;1.472;2023-12-07T00:27:03;99926.78;;;2.23;72.28
81931;BME280;71395;43.488;1.472;2023-12-07T00:29:30;99914.78;;;2.14;72.91
81931;BME280;71395;43.488;1.472;2023-12-07T00:31:56;99919.88;;;2.15;73.38
81931;BME280;71395;43.488;1.472;2023-12-07T00:34:22;99928.22;;;2.19;72.66
81931;BME280;71395;43.488;1.472;2023-12-07T00:36:48;99928.63;;;2.16;72.50
81931;BME280;71395;43.488;1.472;2023-12-07T00:39:13;99900.16;;;2.04;73.23
81931;BME280;71395;43.488;1.472;2023-12-07T00:41:38;99914.59;;;2.08;72.80
81931;BME280;71395;43.488;1.472;2023-12-07T00:44:04;99913.59;;;2.10;72.52
81931;BME280;71395;43.488;1.472;2023-12-07T00:46:31;99918.88;;;2.10;72.77
81931;BME280;71395;43.488;1.472;2023-12-07T00:48:56;99908.47;;;2.08;72.74
81931;BME280;71395;43.488;1.472;2023-12-07T00:51:21;99920.50;;;2.11;72.73
81931;BME280;71395;43.488;1.472;2023-12-07T00:53:47;99923.97;;;2.04;72.68
81931;BME280;71395;43.488;1.472;2023-12-07T00:56:12;99945.09;;;2.11;72.46
81931;BME280;71395;43.488;1.472;2023-12-07T00:58:38;99943.66;;;2.08;72.59
81931;BME280;71395;43.488;1.472;2023-12-07T01:01:03;99938.38;;;2.08;72.92
81931;BME280;71395;43.488;1.472;2023-12-07T01:03:29;99925.16;;;2.02;73.15
81931;BME280;71395;43.488;1.472;2023-12-07T01:05:55;99946.13;;;2.10;72.67
81931;BME280;71395;43.488;1.472;2023-12-07T01:08:20;99947.75;;;2.04;72.48
81931;BME280;71395;43.488;1.472;2023-12-07T01:10:46;99923.13;;;1.97;72.55
81931;BME280;71395;43.488;1.472;2023-12-07T01:13:11;99951.59;;;2.08;72.98
81931;BME280;71395;43.488;1.472;2023-12-07T01:15:37;99944.09;;;2.05;72.78
81931;BME280;71395;43.488;1.472;2023-12-07T01:18:02;99959.13;;;2.12;72.98
81931;BME280;71395;43.488;1.472;2023-12-07T01:20:28;99949.38;;;2.05;72.64
81931;BME280;71395;43.488;1.472;2023-12-07T01:22:53;99942.28;;;1.99;73.23
81931;BME280;71395;43.488;1.472;2023-12-07T01:25:19;99944.72;;;1.94;72.59
81931;BME280;71395;43.488;1.472;2023-12-07T01:27:47;99953.22;;;2.03;72.90
81931;BME280;71395;43.488;1.472;2023-12-07T01:30:12;99935.13;;;1.93;73.13
81931;BME280;71395;43.488;1.472;2023-12-07T01:32:38;99944.72;;;1.94;73.12
81931;BME280;71395;43.488;1.472;2023-12-07T01:35:04;99941.03;;;1.89;73.08
81931;BME280;71395;43.488;1.472;2023-12-07T01:37:29;99947.94;;;1.83;72.77
81931;BME280;71395;43.488;1.472;2023-12-07T01:39:55;99955.69;;;1.85;73.23
81931;BME280;71395;43.488;1.472;2023-12-07T01:42:21;99946.69;;;1.79;72.76
81931;BME280;71395;43.488;1.472;2023-12-07T01:44:46;99941.84;;;1.76;72.65
81931;BME280;71395;43.488;1.472;2023-12-07T01:47:12;99939.78;;;1.78;72.93
81931;BME280;71395;43.488;1.472;2023-12-07T01:49:38;99948.34;;;1.80;72.50
81931;BME280;71395;43.488;1.472;2023-12-07T01:52:05;99907.66;;;1.68;72.86
81931;BME280;71395;43.488;1.472;2023-12-07T01:54:31;99924.78;;;1.85;72.35
81931;BME280;71395;43.488;1.472;2023-12-07T01:56:56;99904.00;;;1.69;73.11
81931;BME280;71395;43.488;1.472;2023-12-07T01:59:23;99928.19;;;1.79;72.14
81931;BME280;71395;43.488;1.472;2023-12-07T02:01:49;99888.16;;;1.55;72.54
81931;BME280;71395;43.488;1.472;2023-12-07T02:04:14;99917.22;;;1.69;72.52
81931;BME280;71395;43.488;1.472;2023-12-07T02:06:40;99912.16;;;1.61;72.83
81931;BME280;71395;43.488;1.472;2023-12-07T02:09:05;99925.97;;;1.63;72.63
81931;BME280;71395;43.488;1.472;2023-12-07T02:11:31;99920.25;;;1.59;73.07
81931;BME280;71395;43.488;1.472;2023-12-07T02:13:56;99921.09;;;1.60;72.85
81931;BME280;71395;43.488;1.472;2023-12-07T02:16:42;99926.97;;;1.62;73.06
81931;BME280;71395;43.488;1.472;2023-12-07T02:19:19;99935.31;;;1.65;72.49
81931;BME280;71395;43.488;1.472;2023-12-07T02:21:58;99931.44;;;1.61;73.03
81931;BME280;71395;43.488;1.472;2023-12-07T02:24:26;99928.59;;;1.63;73.13
81931;BME280;71395;43.488;1.472;2023-12-07T02:26:53;99922.88;;;1.52;73.20
81931;BME280;71395;43.488;1.472;2023-12-07T02:29:19;99917.81;;;1.51;72.90
81931;BME280;71395;43.488;1.472;2023-12-07T02:31:44;99925.94;;;1.56;73.07
81931;BME280;71395;43.488;1.472;2023-12-07T02:34:10;99924.13;;;1.57;72.92
81931;BME280;71395;43.488;1.472;2023-12-07T02:36:38;99924.72;;;1.52;72.53
81931;BME280;71395;43.488;1.472;2023-12-07T02:39:05;99939.16;;;1.63;72.87
81931;BME280;71395;43.488;1.472;2023-12-07T02:41:33;99931.63;;;1.53;72.68
81931;BME280;71395;43.488;1.472;2023-12-07T02:43:59;99931.25;;;1.56;73.05
81931;BME280;71395;43.488;1.472;2023-12-07T02:46:26;99939.16;;;1.63;72.92
81931;BME280;71395;43.488;1.472;2023-12-07T02:48:51;99927.19;;;1.60;73.15
81931;BME280;71395;43.488;1.472;2023-12-07T02:51:17;99930.44;;;1.62;72.50
81931;BME280;71395;43.488;1.472;2023-12-07T02:53:43;99915.59;;;1.54;73.25
81931;BME280;71395;43.488;1.472;2023-12-07T02:56:08;99910.72;;;1.65;73.28
81931;BME280;71395;43.488;1.472;2023-12-07T02:58:34;99913.78;;;1.75;73.02
81931;BME280;71395;43.488;1.472;2023-12-07T03:00:59;99899.75;;;1.74;73.03
81931;BME280;71395;43.488;1.472;2023-12-07T03:03:25;99894.66;;;1.73;73.06
81931;BME280;71395;43.488;1.472;2023-12-07T03:05:50;99884.09;;;1.73;73.34
81931;BME280;71395;43.488;1.472;2023-12-07T03:08:16;99883.28;;;1.79;73.16
81931;BME280;71395;43.488;1.472;2023-12-07T03:10:41;99872.09;;;1.77;73.37
81931;BME280;71395;43.488;1.472;2023-12-07T03:13:07;99878.63;;;1.74;72.67
81931;BME280;71395;43.488;1.472;2023-12-07T03:15:32;99879.41;;;1.81;73.33
81931;BME280;71395;43.488;1.472;2023-12-07T03:17:57;99877.59;;;1.82;73.16
81931;BME280;71395;43.488;1.472;2023-12-07T03:20:23;99858.69;;;1.72;73.26
81931;BME280;71395;43.488;1.472;2023-12-07T03:22:48;99868.44;;;1.71;72.90
81931;BME280;71395;43.488;1.472;2023-12-07T03:25:14;99870.28;;;1.71;73.42
81931;BME280;71395;43.488;1.472;2023-12-07T03:27:40;99864.19;;;1.70;73.49
81931;BME280;71395;43.488;1.472;2023-12-07T03:30:06;99874.75;;;1.77;73.01
81931;BME280;71395;43.488;1.472;2023-12-07T03:32:32;99864.78;;;1.72;73.33
81931;BME280;71395;43.488;1.472;2023-12-07T03:34:57;99863.38;;;1.70;73.44
81931;BME280;71395;43.488;1.472;2023-12-07T03:37:23;99838.56;;;1.58;73.23
81931;BME280;71395;43.488;1.472;2023-12-07T03:39:48;99866.63;;;1.72;73.17
81931;BME280;71395;43.488;1.472;2023-12-07T03:42:14;99872.28;;;1.69;73.18
81931;BME280;71395;43.488;1.472;2023-12-07T03:44:39;99884.09;;;1.73;73.22
81931;BME280;71395;43.488;1.472;2023-12-07T03:47:05;99852.38;;;1.53;73.40
81931;BME280;71395;43.488;1.472;2023-12-07T03:49:30;99866.19;;;1.62;72.68
81931;BME280;71395;43.488;1.472;2023-12-07T03:51:56;99882.88;;;1.69;73.16
81931;BME280;71395;43.488;1.472;2023-12-07T03:54:21;99866.63;;;1.65;73.42
81931;BME280;71395;43.488;1.472;2023-12-07T03:56:47;99863.75;;;1.67;72.97
81931;BME280;71395;43.488;1.472;2023-12-07T03:59:12;99832.88;;;1.47;73.35
81931;BME280;71395;43.488;1.472;2023-12-07T04:01:38;99862.16;;;1.66;72.99
81931;BME280;71395;43.488;1.472;2023-12-07T04:04:03;99849.56;;;1.54;73.32
81931;BME280;71395;43.488;1.472;2023-12-07T04:06:30;99859.50;;;1.66;73.65
81931;BME280;71395;43.488;1.472;2023-12-07T04:08:56;99858.47;;;1.67;72.93
81931;BME280;71395;43.488;1.472;2023-12-07T04:11:21;99852.41;;;1.60;73.36
81931;BME280;71395;43.488;1.472;2023-12-07T04:13:47;99872.09;;;1.70;73.06
81931;BME280;71395;43.488;1.472;2023-12-07T04:16:13;99868.44;;;1.71;73.46
81931;BME280;71395;43.488;1.472;2023-12-07T04:18:39;99872.69;;;1.79;73.59
81931;BME280;71395;43.488;1.472;2023-12-07T04:21:04;99845.47;;;1.72;72.85
81931;BME280;71395;43.488;1.472;2023-12-07T04:23:31;99864.16;;;1.77;73.04
81931;BME280;71395;43.488;1.472;2023-12-07T04:25:56;99846.72;;;1.69;72.66
81931;BME280;71395;43.488;1.472;2023-12-07T04:28:22;99857.69;;;1.79;73.47
81931;BME280;71395;43.488;1.472;2023-12-07T04:30:47;99858.06;;;1.76;73.13
81931;BME280;71395;43.488;1.472;2023-12-07T04:33:13;99861.72;;;1.82;72.95
81931;BME280;71395;43.488;1.472;2023-12-07T04:35:38;99865.00;;;1.84;73.52
81931;BME280;71395;43.488;1.472;2023-12-07T04:38:04;99853.59;;;1.77;72.82
81931;BME280;71395;43.488;1.472;2023-12-07T04:40:29;99864.56;;;1.87;72.81
81931;BME280;71395;43.488;1.472;2023-12-07T04:42:54;99875.16;;;1.87;72.57
81931;BME280;71395;43.488;1.472;2023-12-07T04:45:20;99843.63;;;1.72;73.21
81931;BME280;71395;43.488;1.472;2023-12-07T04:47:46;99859.72;;;1.84;73.05
81931;BME280;71395;43.488;1.472;2023-12-07T04:50:11;99861.72;;;1.89;73.44
81931;BME280;71395;43.488;1.472;2023-12-07T04:52:37;99844.84;;;1.83;72.50
81931;BME280;71395;43.488;1.472;2023-12-07T04:55:03;99856.00;;;1.98;72.65
81931;BME280;71395;43.488;1.472;2023-12-07T04:57:31;99855.41;;;2.03;72.91
81931;BME280;71395;43.488;1.472;2023-12-07T04:59:57;99840.97;;;2.05;72.82
81931;BME280;71395;43.488;1.472;2023-12-07T05:02:22;99849.69;;;2.13;72.70
81931;BME280;71395;43.488;1.472;2023-12-07T05:04:48;99848.88;;;2.19;73.00
81931;BME280;71395;43.488;1.472;2023-12-07T05:07:14;99835.47;;;2.20;72.67
81931;BME280;71395;43.488;1.472;2023-12-07T05:09:40;99819.38;;;2.22;72.48
81931;BME280;71395;43.488;1.472;2023-12-07T05:12:08;99809.00;;;2.20;71.99
81931;BME280;71395;43.488;1.472;2023-12-07T05:14:34;99830.94;;;2.34;72.55
81931;BME280;71395;43.488;1.472;2023-12-07T05:17:03;99826.25;;;2.36;72.59
81931;BME280;71395;43.488;1.472;2023-12-07T05:19:29;99835.41;;;2.40;72.76
81931;BME280;71395;43.488;1.472;2023-12-07T05:21:54;99804.69;;;2.32;73.23
81931;BME280;71395;43.488;1.472;2023-12-07T05:24:20;99830.25;;;2.52;72.62
81931;BME280;71395;43.488;1.472;2023-12-07T05:26:45;99818.06;;;2.51;73.38
81931;BME280;71395;43.488;1.472;2023-12-07T05:29:12;99816.41;;;2.56;73.14
81931;BME280;71395;43.488;1.472;2023-12-07T05:31:38;99800.94;;;2.53;72.65
81931;BME280;71395;43.488;1.472;2023-12-07T05:34:04;99793.63;;;2.55;72.65
81931;BME280;71395;43.488;1.472;2023-12-07T05:36:30;99777.78;;;2.49;72.55
81931;BME280;71395;43.488;1.472;2023-12-07T05:38:56;99796.03;;;2.64;72.83
81931;BME280;71395;43.488;1.472;2023-12-07T05:41:21;99778.16;;;2.59;72.43
81931;BME280;71395;43.488;1.472;2023-12-07T05:43:47;99775.28;;;2.61;72.24
81931;BME280;71395;43.488;1.472;2023-12-07T05:46:13;99768.78;;;2.56;72.48
81931;BME280;71395;43.488;1.472;2023-12-07T05:48:39;99778.28;;;2.71;72.00
81931;BME280;71395;43.488;1.472;2023-12-07T05:51:04;99757.78;;;2.59;72.31
81931;BME280;71395;43.488;1.472;2023-12-07T05:53:30;99768.28;;;2.73;72.39
81931;BME280;71395;43.488;1.472;2023-12-07T05:55:58;99775.16;;;2.80;72.16
81931;BME280;71395;43.488;1.472;2023-12-07T05:58:24;99784.09;;;2.86;72.33
81931;BME280;71395;43.488;1.472;2023-12-07T06:00:49;99769.47;;;2.83;72.70
81931;BME280;71395;43.488;1.472;2023-12-07T06:03:15;99763.72;;;2.87;72.12
81931;BME280;71395;43.488;1.472;2023-12-07T06:05:41;99752.75;;;2.83;71.67
81931;BME280;71395;43.488;1.472;2023-12-07T06:08:07;99770.56;;;3.01;72.31
81931;BME280;71395;43.488;1.472;2023-12-07T06:10:32;99779.06;;;3.09;72.24
81931;BME280;71395;43.488;1.472;2023-12-07T06:12:58;99779.06;;;3.09;71.96
81931;BME280;71395;43.488;1.472;2023-12-07T06:15:26;99776.59;;;3.15;72.77
81931;BME280;71395;43.488;1.472;2023-12-07T06:17:52;99767.44;;;3.10;72.38
81931;BME280;71395;43.488;1.472;2023-12-07T06:20:17;99766.84;;;3.08;72.11
81931;BME280;71395;43.488;1.472;2023-12-07T06:22:43;99764.41;;;3.07;71.83
81931;BME280;71395;43.488;1.472;2023-12-07T06:25:09;99778.44;;;3.14;72.14
81931;BME280;71395;43.488;1.472;2023-12-07T06:27:38;99775.81;;;3.07;71.62
81931;BME280;71395;43.488;1.472;2023-12-07T06:30:05;99751.06;;;2.95;71.92
81931;BME280;71395;43.488;1.472;2023-12-07T06:32:34;99767.28;;;3.05;71.68
81931;BME280;71395;43.488;1.472;2023-12-07T06:35:00;99765.66;;;3.04;72.22
81931;BME280;71395;43.488;1.472;2023-12-07T06:37:26;99777.00;;;3.11;72.17
81931;BME280;71395;43.488;1.472;2023-12-07T06:39:51;99763.13;;;3.16;72.43
81931;BME280;71395;43.488;1.472;2023-12-07T06:42:17;99766.03;;;3.33;72.33
81931;BME280;71395;43.488;1.472;2023-12-07T06:44:45;99735.72;;;3.29;71.86
81931;BME280;71395;43.488;1.472;2023-12-07T06:47:11;99740.47;;;3.45;72.20
81931;BME280;71395;43.488;1.472;2023-12-07T06:49:36;99735.91;;;3.52;71.66
81931;BME280;71395;43.488;1.472;2023-12-07T06:52:02;99748.91;;;3.60;71.68
81931;BME280;71395;43.488;1.472;2023-12-07T06:54:28;99739.19;;;3.54;72.09
81931;BME280;71395;43.488;1.472;2023-12-07T06:56:53;99765.53;;;3.68;72.13
81931;BME280;71395;43.488;1.472;2023-12-07T06:59:19;99775.13;;;3.69;71.82
81931;BME280;71395;43.488;1.472;2023-12-07T07:01:45;99761.94;;;3.62;71.66
81931;BME280;71395;43.488;1.472;2023-12-07T07:04:10;99767.19;;;3.69;72.19
81931;BME280;71395;43.488;1.472;2023-12-07T07:06:36;99756.50;;;3.75;71.93
81931;BME280;71395;43.488;1.472;2023-12-07T07:09:01;99759.31;;;3.80;71.49
81931;BME280;71395;43.488;1.472;2023-12-07T07:11:27;99761.72;;;3.82;72.32
81931;BME280;71395;43.488;1.472;2023-12-07T07:13:54;99765.00;;;3.84;72.23
81931;BME280;71395;43.488;1.472;2023-12-07T07:16:19;99729.84;;;3.70;72.29
81931;BME280;71395;43.488;1.472;2023-12-07T07:18:45;99753.34;;;3.85;71.94
81931;BME280;71395;43.488;1.472;2023-12-07T07:21:10;99751.94;;;3.82;71.54
81931;BME280;71395;43.488;1.472;2023-12-07T07:23:36;99763.38;;;3.83;71.49
81931;BME280;71395;43.488;1.472;2023-12-07T07:26:01;99750.97;;;3.77;72.05
81931;BME280;71395;43.488;1.472;2023-12-07T07:28:27;99761.31;;;3.85;71.43
81931;BME280;71395;43.488;1.472;2023-12-07T07:30:52;99756.97;;;3.91;71.53
81931;BME280;71395;43.488;1.472;2023-12-07T07:33:18;99751.44;;;3.92;71.77
81931;BME280;71395;43.488;1.472;2023-12-07T07:35:44;99763.31;;;4.08;71.76
81931;BME280;71395;43.488;1.472;2023-12-07T07:38:09;99755.84;;;4.17;71.18
81931;BME280;71395;43.488;1.472;2023-12-07T07:40:34;99731.03;;;4.11;72.05
81931;BME280;71395;43.488;1.472;2023-12-07T07:43:01;99752.63;;;4.33;71.36
81931;BME280;71395;43.488;1.472;2023-12-07T07:45:26;99734.47;;;4.30;72.48
81931;BME280;71395;43.488;1.472;2023-12-07T07:47:52;99736.97;;;4.43;71.31
81931;BME280;71395;43.488;1.472;2023-12-07T07:50:17;99744.19;;;4.54;71.44
81931;BME280;71395;43.488;1.472;2023-12-07T07:52:43;99739.94;;;4.65;71.47
81931;BME280;71395;43.488;1.472;2023-12-07T07:55:10;99745.28;;;4.77;71.77
81931;BME280;71395;43.488;1.472;2023-12-07T07:57:36;99745.69;;;4.92;71.15
81931;BME280;71395;43.488;1.472;2023-12-07T08:00:02;99741.91;;;5.00;71.27
81931;BME280;71395;43.488;1.472;2023-12-07T08:02:30;99744.69;;;5.05;70.99
81931;BME280;71395;43.488;1.472;2023-12-07T08:04:55;99738.81;;;5.14;71.88
81931;BME280;71395;43.488;1.472;2023-12-07T08:07:21;99752.91;;;5.27;71.44
81931;BME280;71395;43.488;1.472;2023-12-07T08:09:46;99752.47;;;5.41;71.15
81931;BME280;71395;43.488;1.472;2023-12-07T08:12:12;99748.13;;;5.47;71.08
81931;BME280;71395;43.488;1.472;2023-12-07T08:14:37;99735.97;;;5.51;70.65
81931;BME280;71395;43.488;1.472;2023-12-07T08:17:03;99739.56;;;5.68;70.96
81931;BME280;71395;43.488;1.472;2023-12-07T08:19:29;99738.03;;;5.84;70.70
81931;BME280;71395;43.488;1.472;2023-12-07T08:21:54;99740.34;;;6.04;70.69
81931;BME280;71395;43.488;1.472;2023-12-07T08:24:20;99724.69;;;6.19;70.61
81931;BME280;71395;43.488;1.472;2023-12-07T08:26:46;99714.44;;;6.40;70.71
81931;BME280;71395;43.488;1.472;2023-12-07T08:29:11;99720.66;;;6.57;70.28
81931;BME280;71395;43.488;1.472;2023-12-07T08:31:36;99712.13;;;6.72;69.86
81931;BME280;71395;43.488;1.472;2023-12-07T08:34:02;99716.66;;;6.88;70.09
81931;BME280;71395;43.488;1.472;2023-12-07T08:36:28;99703.19;;;6.95;70.36
81931;BME280;71395;43.488;1.472;2023-12-07T08:38:53;99689.22;;;7.05;70.14
81931;BME280;71395;43.488;1.472;2023-12-07T08:41:19;99695.28;;;7.17;70.11
81931;BME280;71395;43.488;1.472;2023-12-07T08:43:45;99697.31;;;7.27;69.99
81931;BME280;71395;43.488;1.472;2023-12-07T08:46:10;99680.72;;;7.24;70.13
81931;BME280;71395;43.488;1.472;2023-12-07T08:48:36;99696.22;;;7.44;69.98
81931;BME280;71395;43.488;1.472;2023-12-07T08:51:03;99690.22;;;7.54;69.54
81931;BME280;71395;43.488;1.472;2023-12-07T08:53:28;99688.22;;;7.61;69.59
81931;BME280;71395;43.488;1.472;2023-12-07T08:55:54;99696.09;;;7.73;70.20
81931;BME280;71395;43.488;1.472;2023-12-07T08:58:20;99683.97;;;7.82;69.06
81931;BME280;71395;43.488;1.472;2023-12-07T09:00:46;99694.81;;;7.97;69.72
81931;BME280;71395;43.488;1.472;2023-12-07T09:03:11;99672.41;;;7.98;69.39
81931;BME280;71395;43.488;1.472;2023-12-07T09:05:37;99669.84;;;8.09;69.47
81931;BME280;71395;43.488;1.472;2023-12-07T09:08:03;99674.81;;;8.22;69.05
81931;BME280;71395;43.488;1.472;2023-12-07T09:10:28;99685.34;;;8.34;69.07
81931;BME280;71395;43.488;1.472;2023-12-07T09:12:53;99668.88;;;8.37;68.14
81931;BME280;71395;43.488;1.472;2023-12-07T09:15:19;99686.94;;;8.51;67.93
81931;BME280;71395;43.488;1.472;2023-12-07T09:17:46;99668.47;;;8.50;68.20
81931;BME280;71395;43.488;1.472;2023-12-07T09:20:11;99676.66;;;8.65;68.28
81931;BME280;71395;43.488;1.472;2023-12-07T09:22:46;99667.03;;;8.69;67.57
81931;BME280;71395;43.488;1.472;2023-12-07T09:25:12;99654.25;;;8.71;67.39
81931;BME280;71395;43.488;1.472;2023-12-07T09:27:40;99635.50;;;8.66;67.41
81931;BME280;71395;43.488;1.472;2023-12-07T09:30:07;99661.66;;;8.91;67.47
81931;BME280;71395;43.488;1.472;2023-12-07T09:32:36;99655.53;;;8.96;67.12
81931;BME280;71395;43.488;1.472;2023-12-07T09:35:07;99657.22;;;9.07;66.09
81931;BME280;71395;43.488;1.472;2023-12-07T09:37:34;99636.41;;;9.14;67.55
81931;BME280;71395;43.488;1.472;2023-12-07T09:40:00;99643.19;;;9.27;67.41
81931;BME280;71395;43.488;1.472;2023-12-07T09:42:26;99641.91;;;9.40;66.21
81931;BME280;71395;43.488;1.472;2023-12-07T09:44:52;99636.06;;;9.48;67.04
81931;BME280;71395;43.488;1.472;2023-12-07T09:47:17;99623.25;;;9.50;66.78
81931;BME280;71395;43.488;1.472;2023-12-07T09:49:44;99633.72;;;9.56;66.46
81931;BME280;71395;43.488;1.472;2023-12-07T09:52:10;99630.78;;;9.58;65.90
81931;BME280;71395;43.488;1.472;2023-12-07T09:54:40;99639.13;;;9.67;65.24
81931;BME280;71395;43.488;1.472;2023-12-07T09:57:05;99620.69;;;9.70;65.66
81931;BME280;71395;43.488;1.472;2023-12-07T09:59:31;99620.16;;;9.78;65.90
81931;BME280;71395;43.488;1.472;2023-12-07T10:01:56;99633.56;;;9.83;65.75
81931;BME280;71395;43.488;1.472;2023-12-07T10:04:22;99624.50;;;9.90;66.11
81931;BME280;71395;43.488;1.472;2023-12-07T10:06:51;99586.69;;;9.71;64.74
81931;BME280;71395;43.488;1.472;2023-12-07T10:09:17;99603.63;;;9.92;65.85
81931;BME280;71395;43.488;1.472;2023-12-07T10:11:44;99611.97;;;10.00;65.83
81931;BME280;71395;43.488;1.472;2023-12-07T10:14:10;99603.13;;;10.05;64.72
81931;BME280;71395;43.488;1.472;2023-12-07T10:16:36;99595.13;;;10.10;64.46
81931;BME280;71395;43.488;1.472;2023-12-07T10:19:16;99591.09;;;10.18;63.98
81931;BME280;71395;43.488;1.472;2023-12-07T10:21:44;99580.72;;;10.31;63.93
81931;BME280;71395;43.488;1.472;2023-12-07T10:24:10;99590.91;;;10.40;64.17
81931;BME280;71395;43.488;1.472;2023-12-07T10:26:37;99584.19;;;10.37;64.24
81931;BME280;71395;43.488;1.472;2023-12-07T10:29:07;99603.53;;;10.49;63.24
81931;BME280;71395;43.488;1.472;2023-12-07T10:31:33;99595.19;;;10.51;63.81
81931;BME280;71395;43.488;1.472;2023-12-07T10:33:59;99586.63;;;10.59;63.85
81931;BME280;71395;43.488;1.472;2023-12-07T10:36:26;99579.66;;;10.58;63.76
81931;BME280;71395;43.488;1.472;2023-12-07T10:38:52;99579.66;;;10.68;63.03
81931;BME280;71395;43.488;1.472;2023-12-07T10:41:22;99572.16;;;10.75;63.82
81931;BME280;71395;43.488;1.472;2023-12-07T10:44:00;99561.69;;;10.69;61.91
81931;BME280;71395;43.488;1.472;2023-12-07T10:46:26;99564.09;;;10.85;62.64
81931;BME280;71395;43.488;1.472;2023-12-07T10:49:00;99565.69;;;10.86;61.67
81931;BME280;71395;43.488;1.472;2023-12-07T10:53:52;99540.72;;;11.01;61.68
81931;BME280;71395;43.488;1.472;2023-12-07T10:56:29;99527.31;;;11.06;61.75
81931;BME280;71395;43.488;1.472;2023-12-07T10:58:56;99520.59;;;11.19;61.29
81931;BME280;71395;43.488;1.472;2023-12-07T11:01:23;99526.44;;;11.26;61.29
81931;BME280;71395;43.488;1.472;2023-12-07T11:03:51;99515.69;;;11.36;61.77
81931;BME280;71395;43.488;1.472;2023-12-07T11:06:18;99514.03;;;11.46;62.05
81931;BME280;71395;43.488;1.472;2023-12-07T11:08:54;99498.22;;;11.39;60.70
81931;BME280;71395;43.488;1.472;2023-12-07T11:11:36;99496.88;;;11.42;60.95
81931;BME280;71395;43.488;1.472;2023-12-07T11:14:07;99488.81;;;11.42;60.89
81931;BME280;71395;43.488;1.472;2023-12-07T11:16:39;99489.84;;;11.51;60.56
81931;BME280;71395;43.488;1.472;2023-12-07T11:19:05;99471.03;;;11.56;60.96
81931;BME280;71395;43.488;1.472;2023-12-07T11:21:50;99472.56;;;11.67;60.85
81931;BME280;71395;43.488;1.472;2023-12-07T11:24:16;99484.03;;;11.78;60.33
81931;BME280;71395;43.488;1.472;2023-12-07T11:26:42;99461.72;;;11.87;60.13
81931;BME280;71395;43.488;1.472;2023-12-07T11:29:09;99444.84;;;11.77;59.50
81931;BME280;71395;43.488;1.472;2023-12-07T11:31:36;99448.34;;;11.82;59.54
81931;BME280;71395;43.488;1.472;2023-12-07T11:34:06;99439.19;;;11.78;59.97
81931;BME280;71395;43.488;1.472;2023-12-07T11:36:33;99423.91;;;11.79;60.11
81931;BME280;71395;43.488;1.472;2023-12-07T11:41:40;99449.59;;;11.95;60.38
81931;BME280;71395;43.488;1.472;2023-12-07T11:44:09;99445.44;;;12.08;59.47
81931;BME280;71395;43.488;1.472;2023-12-07T11:46:37;99443.56;;;12.13;59.38
81931;BME280;71395;43.488;1.472;2023-12-07T11:49:02;99434.56;;;12.23;60.08
81931;BME280;71395;43.488;1.472;2023-12-07T11:51:29;99422.22;;;12.22;59.28
81931;BME280;71395;43.488;1.472;2023-12-07T11:53:54;99448.22;;;12.32;58.80
81931;BME280;71395;43.488;1.472;2023-12-07T11:56:20;99438.25;;;12.32;59.28
81931;BME280;71395;43.488;1.472;2023-12-07T11:58:46;99435.56;;;12.32;59.36
81931;BME280;71395;43.488;1.472;2023-12-07T12:01:12;99437.66;;;12.40;59.04
81931;BME280;71395;43.488;1.472;2023-12-07T12:03:38;99429.88;;;12.39;58.92
81931;BME280;71395;43.488;1.472;2023-12-07T12:06:05;99423.47;;;12.35;59.00
81931;BME280;71395;43.488;1.472;2023-12-07T12:08:31;99417.78;;;12.36;59.01
81931;BME280;71395;43.488;1.472;2023-12-07T12:10:57;99413.22;;;12.37;59.33
81931;BME280;71395;43.488;1.472;2023-12-07T12:13:30;99410.81;;;12.35;59.47
81931;BME280;71395;43.488;1.472;2023-12-07T12:15:58;99411.34;;;12.37;58.83
81931;BME280;71395;43.488;1.472;2023-12-07T12:18:24;99416.28;;;12.54;59.06
81931;BME280;71395;43.488;1.472;2023-12-07T12:20:53;99398.22;;;12.60;59.34
81931;BME280;71395;43.488;1.472;2023-12-07T12:23:20;99407.47;;;12.73;59.19
81931;BME280;71395;43.488;1.472;2023-12-07T12:25:46;99411.50;;;12.75;57.92
81931;BME280;71395;43.488;1.472;2023-12-07T12:28:15;99384.72;;;12.65;58.38
81931;BME280;71395;43.488;1.472;2023-12-07T12:30:41;99378.19;;;12.71;58.72
81931;BME280;71395;43.488;1.472;2023-12-07T12:33:07;99366.31;;;12.72;58.81
81931;BME280;71395;43.488;1.472;2023-12-07T12:35:32;99378.06;;;12.81;58.68
81931;BME280;71395;43.488;1.472;2023-12-07T12:37:58;99368.44;;;12.75;58.20
81931;BME280;71395;43.488;1.472;2023-12-07T12:40:26;99364.66;;;12.76;58.22
81931;BME280;71395;43.488;1.472;2023-12-07T12:42:52;99371.56;;;12.82;58.63
81931;BME280;71395;43.488;1.472;2023-12-07T12:45:18;99361.91;;;12.81;58.06
81931;BME280;71395;43.488;1.472;2023-12-07T12:47:45;99373.94;;;12.89;58.63
81931;BME280;71395;43.488;1.472;2023-12-07T12:50:12;99358.00;;;12.92;58.13
81931;BME280;71395;43.488;1.472;2023-12-07T12:52:41;99355.31;;;12.92;57.97
81931;BME280;71395;43.488;1.472;2023-12-07T12:55:10;99355.72;;;13.05;57.98
81931;BME280;71395;43.488;1.472;2023-12-07T12:57:36;99357.38;;;13.19;58.09
81931;BME280;71395;43.488;1.472;2023-12-07T13:00:02;99357.34;;;13.25;57.52
81931;BME280;71395;43.488;1.472;2023-12-07T13:02:28;99359.09;;;13.34;57.58
81931;BME280;71395;43.488;1.472;2023-12-07T13:04:54;99350.50;;;13.32;57.44
81931;BME280;71395;43.488;1.472;2023-12-07T13:07:21;99353.19;;;13.32;57.61